createdAt,value
2023-02-18T00:01:53.254Z,54.7
2023-02-18T00:06:53.217Z,54.9
2023-02-18T00:11:53.202Z,54.9
2023-02-18T00:16:53.242Z,55.5
2023-02-18T00:21:53.249Z,56
2023-02-18T00:26:53.308Z,56.1
2023-02-18T00:31:53.389Z,56.1
2023-02-18T00:36:53.217Z,56.2
2023-02-18T00:41:53.266Z,56.3
2023-02-18T00:46:53.248Z,56.4
2023-02-18T00:51:53.254Z,56.6
2023-02-18T00:56:53.241Z,56.8
2023-02-18T01:01:53.342Z,56.9
2023-02-18T01:06:53.257Z,56.8
2023-02-18T01:11:53.260Z,56.9
2023-02-18T01:16:53.229Z,57.1
2023-02-18T01:21:53.275Z,57.1
2023-02-18T01:26:53.267Z,57.1
2023-02-18T01:31:53.379Z,57.1
2023-02-18T01:36:53.235Z,57.5
2023-02-18T01:41:53.288Z,57.5
2023-02-18T01:46:53.323Z,57.8
2023-02-18T01:51:53.264Z,57.8
2023-02-18T01:56:53.227Z,57.8
2023-02-18T02:01:53.361Z,58
2023-02-18T02:06:53.267Z,58
2023-02-18T02:11:53.272Z,58.1
2023-02-18T02:16:53.288Z,58.2
2023-02-18T02:21:53.287Z,58.3
2023-02-18T02:26:53.276Z,58.4
2023-02-18T02:31:53.295Z,58.5
2023-02-18T02:36:53.248Z,58.6
2023-02-18T02:41:53.506Z,58.5
2023-02-18T02:46:53.363Z,58.7
2023-02-18T02:51:53.287Z,58.9
2023-02-18T02:56:53.269Z,58.8
2023-02-18T03:01:53.315Z,58.8
2023-02-18T03:06:53.307Z,58.8
2023-02-18T03:11:53.311Z,58.9
2023-02-18T03:16:53.513Z,58.8
2023-02-18T03:21:53.316Z,58.9
2023-02-18T03:26:53.302Z,58.8
2023-02-18T03:31:53.454Z,58.7
2023-02-18T03:36:53.286Z,58.5
2023-02-18T03:41:53.312Z,58.6
2023-02-18T03:46:53.310Z,58.7
2023-02-18T03:51:53.322Z,58.5
2023-02-18T03:56:53.284Z,58.3
2023-02-18T04:01:53.351Z,58.2
2023-02-18T04:06:53.360Z,58.3
2023-02-18T04:11:53.318Z,58
2023-02-18T04:16:53.571Z,58.1
2023-02-18T04:21:53.380Z,58.2
2023-02-18T04:26:53.355Z,57.9
2023-02-18T04:31:53.349Z,58
2023-02-18T04:36:53.332Z,57.9
2023-02-18T04:41:53.333Z,57.7
2023-02-18T04:46:53.344Z,57.8
2023-02-18T04:51:53.385Z,57.8
2023-02-18T04:56:53.307Z,57.6
2023-02-18T05:01:53.373Z,57.5
2023-02-18T05:06:53.383Z,57.3
2023-02-18T05:11:53.480Z,57.1
2023-02-18T05:16:53.551Z,57
2023-02-18T05:21:53.361Z,56.9
2023-02-18T05:26:53.391Z,56.7
2023-02-18T05:31:53.496Z,56.6
2023-02-18T05:36:53.417Z,56.4
2023-02-18T05:41:53.359Z,56.4
2023-02-18T05:46:53.383Z,56
2023-02-18T05:51:53.367Z,56.1
2023-02-18T05:56:53.360Z,55.8
2023-02-18T06:01:53.388Z,55.5
2023-02-18T06:06:53.387Z,55.5
2023-02-18T06:11:53.433Z,55.3
2023-02-18T06:16:53.547Z,55.1
2023-02-18T06:21:53.369Z,55
2023-02-18T06:26:53.389Z,54.7
2023-02-18T06:31:53.463Z,54.4
2023-02-18T06:36:53.377Z,54.4
2023-02-18T06:41:53.390Z,54.4
2023-02-18T06:46:53.460Z,54.2
2023-02-18T06:51:53.405Z,54.1
2023-02-18T06:56:53.388Z,54.1
2023-02-18T07:01:53.402Z,54.1
2023-02-18T07:06:53.547Z,54.1
2023-02-18T07:11:53.387Z,54.1
2023-02-18T07:16:53.574Z,54.1
2023-02-18T07:21:53.468Z,54.1
2023-02-18T07:26:53.456Z,54.2
2023-02-18T07:31:53.525Z,54.2
2023-02-18T07:36:53.446Z,54
2023-02-18T07:41:53.403Z,54
2023-02-18T07:46:53.510Z,53.9
2023-02-18T07:51:53.559Z,54.2
2023-02-18T07:56:53.399Z,54.5
2023-02-18T08:01:53.425Z,54.6
2023-02-18T08:06:53.435Z,54.5
2023-02-18T08:11:53.402Z,54.4
2023-02-18T08:16:53.547Z,54.7
2023-02-18T08:21:53.472Z,55
2023-02-18T08:27:00.177Z,55.3
2023-02-18T08:31:53.558Z,56
2023-02-18T08:36:53.405Z,56.3
2023-02-18T08:41:53.435Z,56.3
2023-02-18T08:46:53.520Z,56.7
2023-02-18T08:51:53.482Z,57.3
2023-02-18T08:56:53.442Z,57.5
2023-02-18T09:01:53.505Z,57.7
2023-02-18T09:06:53.488Z,58.2
2023-02-18T09:11:53.473Z,58.7
2023-02-18T09:16:53.626Z,59.3
2023-02-18T09:21:53.444Z,59.3
2023-02-18T09:26:53.464Z,59.5
2023-02-18T09:31:53.548Z,59.7
2023-02-18T09:36:53.462Z,59.8
2023-02-18T09:41:53.489Z,59.8
2023-02-18T09:46:53.469Z,60.4
2023-02-18T09:51:53.590Z,60.6
2023-02-18T09:56:53.454Z,60.2
2023-02-18T10:01:53.615Z,60.2
2023-02-18T10:06:53.491Z,60
2023-02-18T10:11:53.503Z,60.3
2023-02-18T10:16:53.788Z,60.3
2023-02-18T10:21:53.518Z,61
2023-02-18T10:26:53.501Z,61.3
2023-02-18T10:31:53.633Z,60.7
2023-02-18T10:36:53.499Z,61
2023-02-18T10:41:53.523Z,61.4
2023-02-18T10:46:53.629Z,61.4
2023-02-18T10:51:53.493Z,61.5
2023-02-18T10:56:53.493Z,61.3
2023-02-18T11:01:53.650Z,61.3
2023-02-18T11:06:53.604Z,61.2
2023-02-18T11:12:01.516Z,62.1
2023-02-18T11:16:53.671Z,62.3
2023-02-18T11:21:53.571Z,62.2
2023-02-18T11:26:53.523Z,62.8
2023-02-18T11:31:53.651Z,63.1
2023-02-18T11:36:53.525Z,63.1
2023-02-18T11:41:53.540Z,62.7
2023-02-18T11:46:53.590Z,62.8
2023-02-18T11:51:53.536Z,62.7
2023-02-18T11:56:53.914Z,62.7
2023-02-18T12:01:53.590Z,62.8
2023-02-18T12:06:53.619Z,63.2
2023-02-18T12:11:53.589Z,63.4
2023-02-18T12:16:53.679Z,64.4
2023-02-18T12:21:53.715Z,64.9
2023-02-18T12:26:53.619Z,65.8
2023-02-18T12:31:53.719Z,65.9
2023-02-18T12:36:53.610Z,66.6
2023-02-18T12:41:53.632Z,67.3
2023-02-18T12:46:53.623Z,68.3
2023-02-18T12:51:53.592Z,69.6
2023-02-18T12:56:53.652Z,71.6
2023-02-18T13:01:53.666Z,73.5
2023-02-18T13:06:53.652Z,76
2023-02-18T13:11:53.605Z,77.4
2023-02-18T13:16:53.712Z,78.6
2023-02-18T13:21:53.672Z,80.9
2023-02-18T13:26:53.617Z,82.8
2023-02-18T13:31:53.793Z,84.4
2023-02-18T13:36:53.665Z,85.2
2023-02-18T13:41:53.634Z,85.5
2023-02-18T13:46:53.731Z,85.6
2023-02-18T13:51:53.620Z,86.5
2023-02-18T13:56:53.942Z,87.5
2023-02-18T14:01:53.768Z,88.5
2023-02-18T14:06:53.712Z,89.9
2023-02-18T14:11:53.721Z,90.1
2023-02-18T14:16:53.699Z,90.4
2023-02-18T14:21:53.702Z,91
2023-02-18T14:26:53.770Z,91.2
2023-02-18T14:31:53.978Z,91
2023-02-18T14:36:53.720Z,91.1
2023-02-18T14:41:55.802Z,91.2
2023-02-18T14:46:53.835Z,91.2
2023-02-18T14:51:54.016Z,91.1
2023-02-18T14:56:53.973Z,91.1
2023-02-18T15:01:54.138Z,91.1
2023-02-18T15:06:53.968Z,91.1
2023-02-18T15:11:53.959Z,91.3
2023-02-18T15:16:53.983Z,91.2
2023-02-18T15:21:54.100Z,91.2
2023-02-18T15:26:54.128Z,90.2
2023-02-18T15:31:54.436Z,86
2023-02-18T15:36:54.094Z,85.2
2023-02-18T15:41:54.153Z,84.4
2023-02-18T15:46:54.204Z,83.5
2023-02-18T15:51:54.324Z,82.5
2023-02-18T15:56:54.257Z,81
2023-02-18T16:01:54.299Z,79.9
2023-02-18T16:06:54.400Z,79.1
2023-02-18T16:11:54.352Z,78
2023-02-18T16:16:54.337Z,77.5
2023-02-18T16:21:54.595Z,76.9
2023-02-18T16:26:54.513Z,76.2
2023-02-18T16:31:54.634Z,73.9
2023-02-18T16:36:54.778Z,72.2
2023-02-18T16:41:54.769Z,71.2
2023-02-18T16:46:54.677Z,70.4
2023-02-18T16:51:54.605Z,69.6
2023-02-18T16:56:54.609Z,68.6
2023-02-18T17:01:54.649Z,67.8
2023-02-18T17:06:54.510Z,67.3
2023-02-18T17:11:54.592Z,66.8
2023-02-18T17:16:54.778Z,66
2023-02-18T17:21:54.844Z,65.7
2023-02-18T17:26:54.922Z,65.2
2023-02-18T17:31:55.105Z,65
2023-02-18T17:36:54.651Z,64.3
2023-02-18T17:41:54.969Z,63.9
2023-02-18T17:46:54.715Z,63.3
2023-02-18T17:51:57.264Z,63.1
2023-02-18T17:56:55.103Z,62.4
2023-02-18T18:01:55.116Z,62.2
2023-02-18T18:06:55.151Z,61.8
2023-02-18T18:11:55.103Z,61.4
2023-02-18T18:16:55.153Z,61.1
2023-02-18T18:21:55.112Z,60.9
2023-02-18T18:26:55.029Z,60.9
2023-02-18T18:31:55.081Z,60.6
2023-02-18T18:36:55.070Z,60.2
2023-02-18T18:41:55.050Z,59.3
2023-02-18T18:46:55.121Z,59
2023-02-18T18:51:56.864Z,59
2023-02-18T18:56:55.277Z,59
2023-02-18T19:01:55.289Z,58.4
2023-02-18T19:06:55.288Z,58
2023-02-18T19:11:55.256Z,57.9
2023-02-18T19:16:55.267Z,57.8
2023-02-18T19:21:55.256Z,58.1
2023-02-18T19:26:55.296Z,58.1
2023-02-18T19:31:55.339Z,58.1
2023-02-18T19:36:55.295Z,58.1
2023-02-18T19:41:55.248Z,57.6
2023-02-18T19:46:55.375Z,57.3
2023-02-18T19:51:55.249Z,57.1
2023-02-18T19:56:55.248Z,57.3
2023-02-18T20:01:55.338Z,57
2023-02-18T20:06:55.288Z,57
2023-02-18T20:11:55.271Z,57.3
2023-02-18T20:16:55.281Z,57.2
2023-02-18T20:21:55.373Z,57
2023-02-18T20:26:55.325Z,57.1
2023-02-18T20:31:55.367Z,57.4
2023-02-18T20:36:55.319Z,57.4
2023-02-18T20:41:55.396Z,57.2
2023-02-18T20:46:55.306Z,57.2
2023-02-18T20:51:55.281Z,57.1
2023-02-18T20:56:55.598Z,57.2
2023-02-18T21:01:55.377Z,57.5
2023-02-18T21:06:55.320Z,57.5
2023-02-18T21:11:55.486Z,57.3
2023-02-18T21:16:55.327Z,57.2
2023-02-18T21:21:55.270Z,56.9
2023-02-18T21:26:55.304Z,56.8
2023-02-18T21:31:55.903Z,56.9
2023-02-18T21:36:55.614Z,56.8
2023-02-18T21:41:55.786Z,56.7
2023-02-18T21:46:55.642Z,56.6
2023-02-18T21:51:55.616Z,56.6
2023-02-18T21:56:55.616Z,56.3
2023-02-18T22:01:55.748Z,56.4
2023-02-18T22:06:55.787Z,56.2
2023-02-18T22:11:55.690Z,56
2023-02-18T22:16:55.753Z,55.9
2023-02-18T22:21:55.863Z,55.6
2023-02-18T22:26:55.653Z,55.6
2023-02-18T22:31:55.972Z,55.5
2023-02-18T22:36:55.978Z,55.5
2023-02-18T22:41:55.685Z,55.5
2023-02-18T22:46:55.661Z,55.5
2023-02-18T22:51:55.642Z,55.5
2023-02-18T22:56:55.627Z,55.5
2023-02-18T23:01:55.641Z,55.4
2023-02-18T23:06:56.918Z,55.4
2023-02-18T23:11:55.634Z,55.2
2023-02-18T23:16:56.031Z,55.1
2023-02-18T23:21:55.808Z,54.9
2023-02-18T23:26:56.004Z,54.9
2023-02-18T23:31:55.903Z,55
2023-02-18T23:36:55.851Z,55.3
2023-02-18T23:41:55.820Z,55.3
2023-02-18T23:46:55.957Z,55
2023-02-18T23:51:55.848Z,54.9
2023-02-18T23:56:55.854Z,55
